< < Back
Terminal Aerodrome Forecast


Current Version              Previous Versions:   1  2  3  4  5  6  7  8  9  

Terminal Aerodrome Forecast

758
FTUS42 KILM 171700
TAFFLO
TAF
KFLO 171728Z 1718/1818 04005KT P6SM SCT020 BKN060
     FM172000 06006KT P6SM VCSH BKN035
     FM180600 03004KT 3SM BR BKN004
     FM180800 03003KT 3/4SM BR BKN005
     FM181300 05006KT 6SM BR BKN005 OVC030
     FM181500 05006KT P6SM BKN012 OVC025=



Latest METAR

044
SAUS70 KWBC 180900 RRA
MTRFLO
METAR KFLO 180853Z AUTO 08004KT 10SM OVC008 22/20 A2991 RMK AO2 SLP125
T02170200 55003


USA.gov is the U.S. government's official web portal to all federal, state and local government web resources and services.